Time;durP1;ratioP1;P1;durP2;ratioP2;P2;SDS_P1;SDS_P2;PMS_P1;PMS_P2;Temp;Humidity;BMP_temperature;BMP_pressure;BME280_temperature;BME280_humidity;BME280_pressure;Samples;Min_cycle;Max_cycle;Signal;HPM_P1;HPM_P2
2021/03/14 00:00:12;;;;;;;2.22;0.70;;;8.70;68.00;;;;;;2342711;54;20980;-66
2021/03/14 00:02:39;;;;;;;2.20;0.60;;;8.80;68.00;;;;;;2345315;53;20891;-66
2021/03/14 00:05:06;;;;;;;1.83;0.60;;;8.80;68.00;;;;;;2334608;53;21531;-66
2021/03/14 00:07:34;;;;;;;1.37;0.50;;;8.70;67.90;;;;;;2586325;52;20963;-66
2021/03/14 00:10:01;;;;;;;1.98;0.60;;;8.80;68.00;;;;;;2341445;54;20960;-67
2021/03/14 00:12:28;;;;;;;1.55;0.45;;;8.80;68.10;;;;;;2340840;54;20996;-66
2021/03/14 00:14:56;;;;;;;2.67;0.77;;;8.80;68.10;;;;;;2336121;54;20951;-66
2021/03/14 00:17:25;;;;;;;2.05;0.57;;;8.80;68.00;;;;;;2581402;53;20938;-66
2021/03/14 00:19:51;;;;;;;2.92;0.32;;;8.80;67.80;;;;;;2339003;53;21645;-66
2021/03/14 00:22:17;;;;;;;1.60;0.40;;;8.80;67.70;;;;;;2575576;52;21189;-66
2021/03/14 00:24:44;;;;;;;1.27;0.50;;;8.80;67.80;;;;;;2334829;53;21016;-66
2021/03/14 00:27:10;;;;;;;1.15;0.50;;;8.90;67.80;;;;;;2336224;53;20933;-66
2021/03/14 00:29:40;;;;;;;2.35;0.70;;;8.80;67.60;;;;;;2582269;52;21007;-67
2021/03/14 00:32:07;;;;;;;1.05;0.35;;;8.90;67.60;;;;;;2581110;52;21512;-66
2021/03/14 00:34:34;;;;;;;0.75;0.40;;;8.90;67.50;;;;;;2337625;53;20963;-66
2021/03/14 00:37:00;;;;;;;4.65;0.77;;;8.90;67.20;;;;;;2581524;52;20937;-66
2021/03/14 00:39:27;;;;;;;0.90;0.35;;;8.90;67.00;;;;;;2336210;54;20961;-67
2021/03/14 00:41:53;;;;;;;0.82;0.37;;;8.90;67.10;;;;;;2344411;53;20968;-67
2021/03/14 00:44:21;;;;;;;1.20;0.40;;;8.90;67.20;;;;;;2579551;52;20963;-66
2021/03/14 00:46:47;;;;;;;3.45;0.57;;;8.90;67.00;;;;;;2343502;53;20974;-66
2021/03/14 00:49:20;;;;;;;2.83;0.90;;;8.90;67.10;;;;;;2573010;52;21009;-66
2021/03/14 00:51:46;;;;;;;5.75;1.80;;;8.80;66.90;;;;;;2335984;53;20964;-67
2021/03/14 00:54:13;;;;;;;4.68;1.45;;;8.90;67.00;;;;;;2344552;53;20992;-66
2021/03/14 00:56:39;;;;;;;3.33;0.90;;;8.90;67.00;;;;;;2588625;52;20975;-66
2021/03/14 00:59:07;;;;;;;1.85;0.60;;;8.90;67.10;;;;;;2587839;53;20954;-67
2021/03/14 01:01:33;;;;;;;0.52;0.30;;;8.90;67.00;;;;;;2341958;54;21000;-66
2021/03/14 01:04:00;;;;;;;0.70;0.30;;;8.80;66.80;;;;;;2588480;52;21008;-66
2021/03/14 01:06:26;;;;;;;0.40;0.20;;;8.80;66.50;;;;;;2340016;54;20999;-66
2021/03/14 01:08:53;;;;;;;0.20;0.10;;;8.70;66.10;;;;;;2338725;53;20988;-66
2021/03/14 01:11:19;;;;;;;0.30;0.22;;;8.60;65.70;;;;;;2342202;54;20938;-66
2021/03/14 01:13:45;;;;;;;0.20;0.20;;;8.50;65.30;;;;;;2327306;53;21360;-66
2021/03/14 01:16:12;;;;;;;0.40;0.20;;;8.40;65.20;;;;;;2583718;52;20944;-66
2021/03/14 01:18:48;;;;;;;0.28;0.20;;;8.30;65.10;;;;;;2545449;54;21127;-66
2021/03/14 01:21:14;;;;;;;0.10;0.10;;;8.20;65.00;;;;;;2341424;53;20915;-66
2021/03/14 01:23:41;;;;;;;0.20;0.20;;;8.10;65.00;;;;;;2584517;52;20965;-66
2021/03/14 01:26:07;;;;;;;0.20;0.20;;;8.00;65.20;;;;;;2339363;54;20956;-66
2021/03/14 01:28:35;;;;;;;0.32;0.20;;;7.90;65.20;;;;;;2347891;53;20979;-66
2021/03/14 01:31:03;;;;;;;0.65;0.40;;;7.80;65.40;;;;;;2337154;53;20939;-66
2021/03/14 01:33:30;;;;;;;1.23;0.37;;;7.80;65.60;;;;;;2338294;54;21067;-66
2021/03/14 01:35:57;;;;;;;0.32;0.25;;;7.70;65.80;;;;;;2343631;54;20971;-66
2021/03/14 01:38:24;;;;;;;1.55;0.60;;;7.70;66.10;;;;;;2334831;53;21496;-66
2021/03/14 01:40:51;;;;;;;1.87;0.68;;;7.60;66.20;;;;;;2581491;52;20970;-66
2021/03/14 01:43:17;;;;;;;1.08;0.50;;;7.60;66.40;;;;;;2341899;53;20924;-66
2021/03/14 01:45:43;;;;;;;2.50;0.90;;;7.60;66.50;;;;;;2587882;52;20958;-66
2021/03/14 01:48:10;;;;;;;1.73;0.70;;;7.50;66.60;;;;;;2341866;53;20984;-65
2021/03/14 01:50:37;;;;;;;1.15;0.52;;;7.50;66.80;;;;;;2345334;53;20919;-66
2021/03/14 01:53:03;;;;;;;0.90;0.47;;;7.50;66.90;;;;;;2588320;52;21071;-66
2021/03/14 01:55:30;;;;;;;1.25;0.50;;;7.50;67.00;;;;;;2587024;53;21044;-66
2021/03/14 01:57:56;;;;;;;0.45;0.35;;;7.50;67.10;;;;;;2346757;53;21455;-65
2021/03/14 02:00:23;;;;;;;1.58;0.60;;;7.40;67.10;;;;;;2330415;53;20960;-66
2021/03/14 02:02:50;;;;;;;2.15;0.75;;;7.40;67.10;;;;;;2344741;53;21000;-65
2021/03/14 02:05:18;;;;;;;3.95;1.45;;;7.40;67.20;;;;;;2344844;53;21366;-66
2021/03/14 02:07:45;;;;;;;2.58;0.98;;;7.40;67.30;;;;;;2329184;53;21634;-67
2021/03/14 02:10:15;;;;;;;2.25;0.70;;;7.40;67.30;;;;;;2588183;52;20968;-66
2021/03/14 02:12:53;;;;;;;1.37;0.60;;;7.40;67.50;;;;;;2341667;54;21044;-66
2021/03/14 02:15:20;;;;;;;1.73;0.55;;;7.40;67.70;;;;;;2341568;53;20976;-66
2021/03/14 02:17:46;;;;;;;0.68;0.35;;;7.40;67.80;;;;;;2341924;53;20980;-66
2021/03/14 02:20:25;;;;;;;0.88;0.30;;;7.40;67.90;;;;;;2587731;52;21054;-67
2021/03/14 02:22:57;;;;;;;0.60;0.30;;;7.40;68.00;;;;;;2588295;53;21402;-66
2021/03/14 02:25:36;;;;;;;1.37;0.40;;;7.50;68.20;;;;;;2323531;53;21426;-65
2021/03/14 02:28:04;;;;;;;2.10;0.50;;;7.50;68.20;;;;;;2585043;52;21428;-66
2021/03/14 02:30:30;;;;;;;1.23;0.40;;;7.50;68.30;;;;;;2346212;54;20988;-66
2021/03/14 02:32:56;;;;;;;0.68;0.37;;;7.50;68.20;;;;;;2340090;53;20995;-66
2021/03/14 02:35:26;;;;;;;1.48;0.43;;;7.50;68.00;;;;;;2325263;53;20965;-66
2021/03/14 02:37:52;;;;;;;1.10;0.40;;;7.50;67.90;;;;;;2334183;53;20978;-65
2021/03/14 02:40:19;;;;;;;0.95;0.32;;;7.50;67.80;;;;;;2346422;53;20970;-66
2021/03/14 02:42:45;;;;;;;2.92;0.50;;;7.50;67.90;;;;;;2340997;53;21036;-66
2021/03/14 02:45:12;;;;;;;0.82;0.35;;;7.50;67.90;;;;;;2588066;53;21019;-66
2021/03/14 02:47:38;;;;;;;1.10;0.47;;;7.40;67.90;;;;;;2344191;53;20943;-66
2021/03/14 02:50:15;;;;;;;0.62;0.30;;;7.40;68.00;;;;;;2341681;53;20932;-66
2021/03/14 02:52:44;;;;;;;0.90;0.40;;;7.40;68.00;;;;;;2345791;54;20968;-66
2021/03/14 02:55:11;;;;;;;1.40;0.40;;;7.30;67.90;;;;;;2586511;52;20941;-66
2021/03/14 02:57:38;;;;;;;1.27;0.30;;;7.30;67.90;;;;;;2341714;54;21016;-66
2021/03/14 03:00:10;;;;;;;0.90;0.30;;;7.30;67.90;;;;;;2345657;53;20951;-66
2021/03/14 03:02:36;;;;;;;0.97;0.40;;;7.30;67.90;;;;;;2575129;52;20931;-66
2021/03/14 03:05:04;;;;;;;0.82;0.40;;;7.30;68.00;;;;;;2341300;54;21446;-65
2021/03/14 03:07:30;;;;;;;2.45;0.55;;;7.30;68.10;;;;;;2588728;53;21008;-66
2021/03/14 03:09:57;;;;;;;1.20;0.50;;;7.20;68.10;;;;;;2341264;54;21544;-65
2021/03/14 03:12:38;;;;;;;0.50;0.30;;;7.20;68.10;;;;;;2343853;53;21455;-66
2021/03/14 03:15:05;;;;;;;0.88;0.30;;;7.20;68.20;;;;;;2335375;54;21059;-66
2021/03/14 03:18:11;;;;;;;0.98;0.30;;;7.20;68.30;;;;;;2336588;54;21709;-66
2021/03/14 03:20:38;;;;;;;0.60;0.28;;;7.20;68.20;;;;;;2338380;54;20960;-67
2021/03/14 03:23:04;;;;;;;1.65;0.40;;;7.20;68.30;;;;;;2335979;53;21020;-66
2021/03/14 03:25:30;;;;;;;0.98;0.40;;;7.20;68.40;;;;;;2339804;54;21793;-66
2021/03/14 03:27:57;;;;;;;0.95;0.35;;;7.20;68.40;;;;;;2338083;53;21644;-65
2021/03/14 03:30:26;;;;;;;0.30;0.30;;;7.20;68.40;;;;;;2340332;53;20975;-66
2021/03/14 03:32:52;;;;;;;1.58;0.40;;;7.10;68.20;;;;;;2333769;53;20981;-66
2021/03/14 03:35:22;;;;;;;0.98;0.30;;;7.10;68.20;;;;;;2334160;54;20980;-66
2021/03/14 03:37:49;;;;;;;0.32;0.30;;;7.10;68.10;;;;;;2334760;53;20955;-66
2021/03/14 03:40:18;;;;;;;0.37;0.30;;;7.10;68.10;;;;;;2328541;53;21060;-66
2021/03/14 03:43:28;;;;;;;0.52;0.20;;;7.10;68.10;;;;;;2585032;52;20999;-65
2021/03/14 03:45:57;;;;;;;0.20;0.20;;;7.10;67.80;;;;;;2338698;54;21047;-65
2021/03/14 03:48:33;;;;;;;0.25;0.25;;;7.10;68.10;;;;;;2589032;52;21047;-66
2021/03/14 03:51:00;;;;;;;0.20;0.20;;;7.10;68.00;;;;;;2561140;53;20984;-66
2021/03/14 03:53:26;;;;;;;0.77;0.22;;;7.00;67.90;;;;;;2341617;54;20960;-66
2021/03/14 03:55:53;;;;;;;0.77;0.30;;;7.00;67.80;;;;;;2340345;53;21643;-66
2021/03/14 03:58:20;;;;;;;0.35;0.20;;;7.00;67.80;;;;;;2339629;54;20945;-65
2021/03/14 04:00:46;;;;;;;0.70;0.30;;;7.00;67.90;;;;;;2341728;54;21699;-66
2021/03/14 04:03:13;;;;;;;1.85;0.28;;;7.00;68.00;;;;;;2342273;54;21016;-65
2021/03/14 04:05:40;;;;;;;1.02;0.22;;;6.90;68.00;;;;;;2346557;53;21493;-66
2021/03/14 04:08:08;;;;;;;3.20;0.30;;;6.90;68.10;;;;;;2322930;54;21119;-66
2021/03/14 04:10:35;;;;;;;1.27;0.50;;;6.90;68.20;;;;;;2582526;52;20921;-65
2021/03/14 04:13:01;;;;;;;0.30;0.30;;;6.90;68.20;;;;;;2581122;52;22403;-66
2021/03/14 04:15:29;;;;;;;0.80;0.30;;;6.90;68.30;;;;;;2336147;53;21925;-66
2021/03/14 04:17:55;;;;;;;0.85;0.30;;;6.90;68.40;;;;;;2581175;52;20930;-66
2021/03/14 04:20:38;;;;;;;1.98;0.20;;;6.90;68.40;;;;;;2581388;53;20936;-67
2021/03/14 04:23:07;;;;;;;0.50;0.30;;;6.90;68.40;;;;;;2333345;54;21004;-66
2021/03/14 04:25:47;;;;;;;0.37;0.25;;;6.90;68.50;;;;;;2320000;55;20967;-66
2021/03/14 04:28:13;;;;;;;0.73;0.40;;;6.90;68.40;;;;;;2579358;53;21060;-65
2021/03/14 04:30:45;;;;;;;3.03;0.45;;;6.90;68.40;;;;;;2336335;54;21813;-67
2021/03/14 04:33:11;;;;;;;0.93;0.30;;;6.90;68.40;;;;;;2581633;52;21570;-66
2021/03/14 04:35:39;;;;;;;1.92;0.35;;;6.90;68.40;;;;;;2329253;53;21255;-66
2021/03/14 04:38:06;;;;;;;1.37;0.40;;;6.90;68.40;;;;;;2345606;53;21121;-66
2021/03/14 04:40:32;;;;;;;2.08;0.47;;;6.90;68.40;;;;;;2340881;53;20941;-65
2021/03/14 04:42:58;;;;;;;1.20;0.50;;;6.90;68.40;;;;;;2588102;52;21023;-66
2021/03/14 04:45:25;;;;;;;1.20;0.37;;;6.90;68.30;;;;;;2587851;52;21519;-66
2021/03/14 04:47:51;;;;;;;1.17;0.40;;;7.00;68.50;;;;;;2567807;52;21543;-66
2021/03/14 04:50:22;;;;;;;0.52;0.30;;;7.00;68.50;;;;;;2340266;54;20944;-66
2021/03/14 04:52:51;;;;;;;1.48;0.32;;;7.00;68.50;;;;;;2586541;52;21019;-66
2021/03/14 04:55:18;;;;;;;1.33;0.47;;;7.00;68.50;;;;;;2335322;54;21489;-65
2021/03/14 04:57:44;;;;;;;1.45;0.50;;;7.00;68.50;;;;;;2337631;54;20985;-66
2021/03/14 05:00:11;;;;;;;2.78;0.60;;;7.00;68.50;;;;;;2342197;54;20908;-66
2021/03/14 05:02:41;;;;;;;0.90;0.40;;;7.00;68.50;;;;;;2337268;54;20972;-65
2021/03/14 05:05:08;;;;;;;2.17;0.50;;;7.10;68.50;;;;;;2314760;54;20951;-66
2021/03/14 05:07:35;;;;;;;1.55;0.30;;;7.10;68.50;;;;;;2337610;53;21739;-65
2021/03/14 05:10:01;;;;;;;0.85;0.40;;;7.10;68.50;;;;;;2580283;52;20999;-66
2021/03/14 05:12:27;;;;;;;0.85;0.35;;;7.10;68.50;;;;;;2329077;53;20988;-67
2021/03/14 05:14:54;;;;;;;2.55;0.60;;;7.10;68.50;;;;;;2341847;54;20984;-65
2021/03/14 05:17:20;;;;;;;1.20;0.40;;;7.10;68.40;;;;;;2342855;53;21875;-66
2021/03/14 05:19:47;;;;;;;0.62;0.30;;;7.20;68.50;;;;;;2340866;53;21817;-66
2021/03/14 05:22:13;;;;;;;1.55;0.30;;;7.20;68.40;;;;;;2329712;53;20921;-67
2021/03/14 05:24:39;;;;;;;0.60;0.35;;;7.20;68.30;;;;;;2344063;53;20996;-67
2021/03/14 05:27:06;;;;;;;0.62;0.40;;;7.20;68.40;;;;;;2334682;53;20948;-66
2021/03/14 05:29:35;;;;;;;2.62;0.52;;;7.20;68.30;;;;;;2332239;54;20963;-66
2021/03/14 05:32:02;;;;;;;0.90;0.32;;;7.20;68.30;;;;;;2333553;54;21068;-67
2021/03/14 05:34:29;;;;;;;0.80;0.32;;;7.20;68.20;;;;;;2582690;52;20916;-66
2021/03/14 05:36:55;;;;;;;1.17;0.30;;;7.20;68.20;;;;;;2331855;54;20984;-66
2021/03/14 05:39:21;;;;;;;3.80;0.60;;;7.20;68.20;;;;;;2334065;53;21002;-67
2021/03/14 05:41:47;;;;;;;0.95;0.60;;;7.20;68.80;;;;;;2317042;53;21007;-65
2021/03/14 05:44:26;;;;;;;1.20;0.40;;;7.20;68.10;;;;;;2581434;53;20944;-66
2021/03/14 05:46:52;;;;;;;0.90;0.30;;;7.20;67.90;;;;;;2335768;53;21247;-66
2021/03/14 05:49:19;;;;;;;1.48;0.70;;;7.20;68.10;;;;;;2348899;53;21009;-66
2021/03/14 05:51:49;;;;;;;1.92;0.77;;;7.20;68.10;;;;;;2340396;53;20978;-66
2021/03/14 05:54:17;;;;;;;1.45;0.50;;;7.20;67.90;;;;;;2339768;53;21040;-66
2021/03/14 05:56:44;;;;;;;1.17;0.40;;;7.20;67.90;;;;;;2329003;53;20984;-66
2021/03/14 05:59:12;;;;;;;1.33;0.50;;;7.20;67.90;;;;;;2587829;52;21429;-65
2021/03/14 06:01:38;;;;;;;0.80;0.40;;;7.20;67.80;;;;;;2345738;54;20983;-65
2021/03/14 06:04:23;;;;;;;1.87;0.40;;;7.20;67.70;;;;;;2341084;53;20971;-66
2021/03/14 06:06:49;;;;;;;4.35;0.50;;;7.10;67.30;;;;;;2339460;54;20916;-66
2021/03/14 06:09:17;;;;;;;2.90;0.55;;;7.10;67.50;;;;;;2579738;52;21043;-66
2021/03/14 06:11:43;;;;;;;1.02;0.50;;;7.10;67.40;;;;;;2338606;53;20928;-66
2021/03/14 06:14:10;;;;;;;1.12;0.50;;;7.10;67.30;;;;;;2340874;54;20995;-66
2021/03/14 06:16:37;;;;;;;1.98;0.70;;;7.10;67.50;;;;;;2336305;54;20964;-66
2021/03/14 06:19:04;;;;;;;3.92;1.02;;;7.00;67.50;;;;;;2582341;52;20996;-66
2021/03/14 06:21:31;;;;;;;2.12;0.80;;;7.00;67.60;;;;;;2345398;53;20950;-65
2021/03/14 06:24:07;;;;;;;1.37;0.50;;;7.00;67.70;;;;;;2344020;54;20956;-66
2021/03/14 06:26:41;;;;;;;2.58;1.02;;;7.00;67.80;;;;;;2347109;53;21006;-65
2021/03/14 06:30:09;;;;;;;0.82;0.40;;;7.00;67.80;;;;;;2343321;53;20944;-66
2021/03/14 06:32:36;;;;;;;1.20;0.60;;;7.00;67.50;;;;;;2347650;54;20932;-65
2021/03/14 06:35:10;;;;;;;2.67;0.62;;;7.00;68.00;;;;;;2583960;52;21306;-65
2021/03/14 06:37:39;;;;;;;2.33;0.45;;;7.10;68.20;;;;;;2345450;53;21006;-65
2021/03/14 06:40:09;;;;;;;2.83;0.90;;;7.00;68.20;;;;;;2337382;53;21118;-66
2021/03/14 06:42:38;;;;;;;5.03;1.80;;;7.10;68.30;;;;;;2586106;53;21011;-66
2021/03/14 06:45:10;;;;;;;3.85;1.55;;;7.10;68.40;;;;;;2585846;53;20975;-66
2021/03/14 06:47:38;;;;;;;2.87;0.82;;;7.10;68.40;;;;;;2335151;54;20941;-66
2021/03/14 06:50:06;;;;;;;1.73;0.73;;;7.10;68.40;;;;;;2578435;52;20974;-66
2021/03/14 06:52:32;;;;;;;2.85;0.52;;;7.10;68.30;;;;;;2324130;53;21067;-66
2021/03/14 06:54:58;;;;;;;2.00;0.70;;;7.10;68.10;;;;;;2578184;53;21314;-67
2021/03/14 06:57:25;;;;;;;1.83;0.52;;;7.10;68.20;;;;;;2574925;52;21768;-66
2021/03/14 06:59:55;;;;;;;3.92;0.70;;;7.10;68.30;;;;;;2582314;53;21478;-66
2021/03/14 07:02:24;;;;;;;4.43;0.80;;;7.10;68.10;;;;;;2307134;55;20936;-66
2021/03/14 07:05:00;;;;;;;2.60;0.70;;;7.20;68.20;;;;;;2582511;52;20912;-66
2021/03/14 07:07:41;;;;;;;1.90;0.80;;;7.20;68.10;;;;;;2321630;55;21074;-66
2021/03/14 07:10:15;;;;;;;1.62;0.60;;;7.20;68.20;;;;;;2582776;52;20969;-66
2021/03/14 07:12:45;;;;;;;4.28;1.02;;;7.20;68.20;;;;;;2584855;52;21518;-66
2021/03/14 07:15:16;;;;;;;1.08;0.45;;;7.20;68.30;;;;;;2338798;54;20972;-66
2021/03/14 07:17:48;;;;;;;1.23;0.55;;;7.30;68.60;;;;;;2585085;52;21618;-66
2021/03/14 07:20:16;;;;;;;2.30;0.80;;;7.30;68.70;;;;;;2339407;54;20932;-65
2021/03/14 07:23:00;;;;;;;5.62;0.80;;;7.30;68.60;;;;;;2346359;53;21897;-66
2021/03/14 07:25:30;;;;;;;1.48;0.57;;;7.30;68.70;;;;;;2327345;54;21517;-65
2021/03/14 07:27:56;;;;;;;2.47;0.60;;;7.40;68.70;;;;;;2312906;54;21035;-66
2021/03/14 07:30:26;;;;;;;3.22;0.70;;;7.40;68.70;;;;;;2341847;53;21268;-66
2021/03/14 07:32:52;;;;;;;1.87;0.60;;;7.40;68.70;;;;;;2324689;53;21417;-66
2021/03/14 07:35:19;;;;;;;1.48;0.50;;;7.40;68.90;;;;;;2343286;54;21052;-66
2021/03/14 07:37:45;;;;;;;2.33;0.70;;;7.40;69.10;;;;;;2590106;53;21634;-66
2021/03/14 07:40:16;;;;;;;1.83;0.57;;;7.50;69.20;;;;;;2590130;52;21050;-66
2021/03/14 07:42:42;;;;;;;4.12;0.60;;;7.50;69.00;;;;;;2343337;53;20996;-66
2021/03/14 07:45:12;;;;;;;3.15;0.70;;;7.60;69.10;;;;;;2353359;53;21730;-66
2021/03/14 07:47:39;;;;;;;2.20;0.60;;;7.60;69.00;;;;;;2333820;53;20956;-67
2021/03/14 07:50:08;;;;;;;2.47;0.62;;;7.60;68.90;;;;;;2589814;52;20975;-66
2021/03/14 07:52:34;;;;;;;1.92;0.60;;;7.60;69.00;;;;;;2343317;53;20980;-66
2021/03/14 07:55:02;;;;;;;1.60;0.60;;;7.70;69.40;;;;;;2590576;52;20951;-67
2021/03/14 07:57:29;;;;;;;3.67;0.70;;;7.70;69.50;;;;;;2562049;53;20913;-66
2021/03/14 07:59:56;;;;;;;3.92;0.70;;;7.80;69.90;;;;;;2590163;53;21413;-66
2021/03/14 08:02:26;;;;;;;2.08;0.70;;;7.90;70.00;;;;;;2342345;53;21012;-66
2021/03/14 08:05:01;;;;;;;1.52;0.50;;;7.90;69.70;;;;;;2342911;53;20992;-66
2021/03/14 08:08:01;;;;;;;1.77;0.60;;;8.00;69.70;;;;;;2588410;53;21000;-66
2021/03/14 08:10:35;;;;;;;2.22;0.77;;;8.10;68.90;;;;;;2589186;52;20971;-66
2021/03/14 08:13:02;;;;;;;3.20;1.00;;;8.10;69.30;;;;;;2324104;55;20975;-66
2021/03/14 08:15:30;;;;;;;3.72;0.60;;;8.20;69.20;;;;;;2343642;54;21500;-66
2021/03/14 08:17:58;;;;;;;1.33;0.47;;;8.20;68.90;;;;;;2343897;54;20940;-67
2021/03/14 08:20:43;;;;;;;2.92;0.80;;;8.30;69.00;;;;;;2347256;53;21135;-66
2021/03/14 08:23:11;;;;;;;4.68;1.10;;;8.30;68.00;;;;;;2346085;53;21219;-66
2021/03/14 08:25:53;;;;;;;3.08;0.60;;;8.30;68.50;;;;;;2582132;53;21030;-67
2021/03/14 08:28:32;;;;;;;2.40;0.68;;;8.30;68.10;;;;;;2343718;53;21003;-66
2021/03/14 08:31:02;;;;;;;1.90;0.90;;;8.30;67.80;;;;;;2342424;54;20924;-67
2021/03/14 08:33:39;;;;;;;2.33;0.57;;;8.30;68.00;;;;;;2346801;53;20986;-66
2021/03/14 08:36:07;;;;;;;2.78;0.80;;;8.30;68.00;;;;;;2344220;54;21005;-67
2021/03/14 08:38:43;;;;;;;2.55;0.77;;;8.40;68.20;;;;;;2326681;54;20927;-66
2021/03/14 08:41:29;;;;;;;2.05;0.70;;;8.40;68.00;;;;;;2590397;52;20987;-66
2021/03/14 08:44:14;;;;;;;3.12;0.88;;;8.40;68.00;;;;;;2341320;54;21008;-66
2021/03/14 08:47:15;;;;;;;4.85;1.08;;;8.40;68.10;;;;;;2577733;52;21002;-67
2021/03/14 08:49:55;;;;;;;3.30;0.98;;;8.50;67.80;;;;;;2332493;53;21645;-66
2021/03/14 08:52:22;;;;;;;2.42;0.73;;;8.50;68.30;;;;;;2319278;53;20964;-67
2021/03/14 08:54:56;;;;;;;2.62;0.80;;;8.60;68.80;;;;;;2323689;53;21645;-67
2021/03/14 08:57:23;;;;;;;3.83;0.68;;;8.60;68.50;;;;;;2559632;52;20999;-66
2021/03/14 09:00:03;;;;;;;3.37;0.70;;;8.60;68.50;;;;;;2320087;53;22247;-66
2021/03/14 09:02:33;;;;;;;2.35;0.62;;;8.70;68.50;;;;;;2299485;53;21921;-67
2021/03/14 09:05:13;;;;;;;3.17;0.80;;;8.70;68.90;;;;;;2301630;53;21724;-67
2021/03/14 09:07:44;;;;;;;1.98;0.73;;;8.80;69.00;;;;;;2289952;54;21903;-67
2021/03/14 09:10:17;;;;;;;3.97;1.15;;;8.90;69.50;;;;;;2284144;54;21888;-68
2021/03/14 09:12:44;;;;;;;3.83;1.20;;;8.90;69.10;;;;;;2532911;52;21656;-67
2021/03/14 09:15:14;;;;;;;1.62;0.70;;;9.00;69.10;;;;;;2263037;54;20969;-67
2021/03/14 09:17:43;;;;;;;2.58;0.90;;;9.00;68.70;;;;;;2518605;53;22157;-66
2021/03/14 09:20:15;;;;;;;;;;;9.10;68.40;;;;;;2305400;53;20968;-67
2021/03/14 09:22:43;;;;;;;2.15;0.77;;;9.10;67.10;;;;;;2284379;54;20512;-67
2021/03/14 09:25:13;;;;;;;3.20;0.70;;;9.20;68.10;;;;;;2286630;54;21515;-67
2021/03/14 09:27:44;;;;;;;3.72;1.15;;;9.20;67.90;;;;;;2533784;52;21775;-68
2021/03/14 09:30:22;;;;;;;3.50;0.82;;;9.20;67.80;;;;;;2277479;54;22262;-67
2021/03/14 09:32:53;;;;;;;3.47;0.80;;;9.20;68.20;;;;;;2304484;53;21115;-66
2021/03/14 09:35:36;;;;;;;3.20;1.35;;;9.30;69.00;;;;;;2288513;53;21852;-68
2021/03/14 09:38:24;;;;;;;3.35;1.02;;;9.40;69.30;;;;;;2545397;52;22516;-66
2021/03/14 09:40:53;;;;;;;4.70;1.20;;;9.50;69.60;;;;;;2312312;53;22279;-67
2021/03/14 09:43:27;;;;;;;3.83;0.70;;;9.60;70.30;;;;;;2559929;52;21849;-66
2021/03/14 09:46:00;;;;;;;2.67;0.85;;;9.70;70.70;;;;;;2560644;52;21034;-66
2021/03/14 09:48:27;;;;;;;3.58;0.80;;;9.90;72.00;;;;;;2547596;52;20925;-66
2021/03/14 09:51:04;;;;;;;2.40;0.80;;;10.10;71.40;;;;;;2329397;53;21516;-66
2021/03/14 09:54:06;;;;;;;4.53;0.80;;;10.40;71.20;;;;;;2573309;52;21012;-67
2021/03/14 09:56:33;;;;;;;3.15;0.88;;;10.60;71.30;;;;;;2334544;53;21004;-66
2021/03/14 09:59:04;;;;;;;3.25;0.90;;;10.90;70.90;;;;;;2334875;54;21020;-66
2021/03/14 10:01:31;;;;;;;3.30;0.90;;;11.10;70.70;;;;;;2587262;52;21012;-67
2021/03/14 10:03:58;;;;;;;5.07;0.93;;;11.30;70.80;;;;;;2584485;52;20967;-66
2021/03/14 10:06:37;;;;;;;;;;;11.30;69.50;;;;;;2347220;53;21008;-67
2021/03/14 10:09:03;;;;;;;2.78;0.90;;;11.50;67.50;;;;;;2342166;53;20083;-66
2021/03/14 10:11:29;;;;;;;1.48;0.57;;;11.60;69.10;;;;;;2585740;52;21162;-68
2021/03/14 10:14:01;;;;;;;2.85;0.62;;;11.70;69.00;;;;;;2343387;53;21277;-66
2021/03/14 10:16:28;;;;;;;3.05;0.65;;;11.80;67.10;;;;;;2344063;53;20943;-66
2021/03/14 10:18:57;;;;;;;3.55;0.98;;;11.80;66.20;;;;;;2331381;53;20963;-67
2021/03/14 10:21:27;;;;;;;3.70;0.98;;;11.80;64.60;;;;;;2339920;53;20987;-66
2021/03/14 10:24:22;;;;;;;2.17;0.68;;;11.80;64.00;;;;;;2325499;53;21063;-67
2021/03/14 10:27:06;;;;;;;3.50;0.75;;;11.70;62.00;;;;;;2337172;53;20956;-67
2021/03/14 10:29:35;;;;;;;2.25;0.60;;;11.60;62.60;;;;;;2335070;54;20941;-67
2021/03/14 10:32:03;;;;;;;3.37;0.70;;;11.50;63.20;;;;;;2584751;52;21008;-67
2021/03/14 10:34:30;;;;;;;3.70;0.80;;;11.40;63.00;;;;;;2343078;54;21425;-66
2021/03/14 10:36:56;;;;;;;1.60;0.70;;;11.40;63.10;;;;;;2343481;54;20952;-67
2021/03/14 10:39:26;;;;;;;3.40;0.75;;;11.30;62.60;;;;;;2346705;53;21404;-67
2021/03/14 10:41:53;;;;;;;5.72;0.90;;;11.20;62.60;;;;;;2328829;53;1296363;-67
2021/03/14 10:44:25;;;;;;;4.05;1.05;;;11.20;63.30;;;;;;2337146;53;20965;-67
2021/03/14 10:46:52;;;;;;;1.98;0.70;;;11.10;62.80;;;;;;2587609;52;20951;-67
2021/03/14 10:49:29;;;;;;;3.12;0.80;;;11.00;62.90;;;;;;2589511;52;20945;-67
2021/03/14 10:51:57;;;;;;;3.15;0.90;;;11.00;62.60;;;;;;2343381;54;20952;-67
2021/03/14 10:54:35;;;;;;;3.37;0.95;;;10.90;62.60;;;;;;2343248;54;20975;-66
2021/03/14 10:57:02;;;;;;;2.47;0.70;;;10.80;61.90;;;;;;2582298;53;22284;-67
2021/03/14 10:59:30;;;;;;;3.92;0.90;;;10.70;62.30;;;;;;2337183;53;21012;-66
2021/03/14 11:05:30;;;;;;;2.55;1.00;;;10.60;61.40;;;;;;2330546;54;20924;-66
2021/03/14 11:08:00;;;;;;;2.55;0.75;;;10.30;60.60;;;;;;2571213;52;20964;-66
2021/03/14 11:10:27;;;;;;;2.85;0.88;;;10.10;61.30;;;;;;2568279;52;21496;-66
2021/03/14 11:12:53;;;;;;;2.25;0.73;;;9.90;62.50;;;;;;2325970;53;20939;-66
2021/03/14 11:15:25;;;;;;;1.87;0.65;;;9.80;62.80;;;;;;2326185;53;21746;-67
2021/03/14 11:17:51;;;;;;;4.62;1.00;;;9.60;62.80;;;;;;2314568;53;20947;-67
2021/03/14 11:20:20;;;;;;;3.25;0.90;;;9.50;62.70;;;;;;2554054;53;20917;-66
2021/03/14 11:22:57;;;;;;;3.03;0.82;;;9.30;62.70;;;;;;2539550;53;20956;-66
2021/03/14 11:25:23;;;;;;;3.03;0.90;;;9.20;63.00;;;;;;2325905;53;21691;-65
2021/03/14 11:27:51;;;;;;;3.22;1.10;;;9.00;63.50;;;;;;2340189;53;21447;-66
2021/03/14 11:30:19;;;;;;;3.80;1.20;;;8.90;63.70;;;;;;2342159;53;21585;-66
2021/03/14 11:32:46;;;;;;;3.83;1.00;;;8.70;63.70;;;;;;2343902;53;20952;-66
2021/03/14 11:35:31;;;;;;;3.33;1.00;;;8.60;64.20;;;;;;2332331;53;20974;-66
2021/03/14 11:37:57;;;;;;;2.47;1.15;;;8.50;64.50;;;;;;2342831;53;20945;-66
2021/03/14 11:40:26;;;;;;;4.55;1.33;;;8.40;65.10;;;;;;2340519;54;20964;-66
2021/03/14 11:42:53;;;;;;;3.15;1.10;;;8.40;65.40;;;;;;2587414;52;20964;-66
2021/03/14 11:45:19;;;;;;;6.03;1.40;;;8.30;65.60;;;;;;2352130;53;21373;-65
2021/03/14 11:47:46;;;;;;;3.17;1.00;;;8.20;66.00;;;;;;2313645;54;20952;-65
2021/03/14 11:50:13;;;;;;;3.17;0.90;;;8.20;66.30;;;;;;2342668;53;20924;-65
2021/03/14 11:52:39;;;;;;;4.53;1.10;;;8.10;66.50;;;;;;2343689;54;20976;-66
2021/03/14 11:55:07;;;;;;;4.78;1.08;;;8.10;66.30;;;;;;2343672;54;21484;-66
2021/03/14 11:57:34;;;;;;;3.70;1.08;;;8.00;66.10;;;;;;2590989;52;21093;-67
2021/03/14 12:00:02;;;;;;;4.20;1.20;;;8.00;66.20;;;;;;2346922;53;20934;-66
2021/03/14 12:02:28;;;;;;;3.33;1.05;;;7.90;66.50;;;;;;2590616;52;21521;-65
2021/03/14 12:04:58;;;;;;;3.47;1.10;;;7.80;66.60;;;;;;2344809;53;21445;-65
2021/03/14 12:07:25;;;;;;;5.10;1.10;;;7.80;66.70;;;;;;2324488;54;21391;-66
2021/03/14 12:09:54;;;;;;;4.15;1.75;;;7.70;67.00;;;;;;2589698;52;20959;-66
2021/03/14 12:12:22;;;;;;;6.00;1.40;;;7.70;67.10;;;;;;2589946;53;20904;-65
2021/03/14 12:14:51;;;;;;;3.17;1.23;;;7.60;67.10;;;;;;2573288;52;20960;-65
2021/03/14 12:17:17;;;;;;;4.07;1.30;;;7.60;67.40;;;;;;2345407;53;20982;-65
2021/03/14 12:19:44;;;;;;;4.47;1.20;;;7.60;67.50;;;;;;2585952;53;20957;-67
2021/03/14 12:22:10;;;;;;;2.87;0.85;;;7.60;67.60;;;;;;2582128;52;20982;-66
2021/03/14 12:24:37;;;;;;;3.97;0.95;;;7.50;67.80;;;;;;2578756;52;21079;-66
2021/03/14 12:27:07;;;;;;;5.28;1.20;;;7.60;68.30;;;;;;2587791;52;20951;-66
2021/03/14 12:29:34;;;;;;;3.62;1.23;;;7.60;68.50;;;;;;2335104;53;21006;-67
2021/03/14 12:32:00;;;;;;;4.00;1.12;;;7.60;68.80;;;;;;2340469;54;21421;-66
2021/03/14 12:34:29;;;;;;;3.17;0.90;;;7.60;68.90;;;;;;2341831;54;20944;-66
2021/03/14 12:36:55;;;;;;;2.72;0.85;;;7.60;69.10;;;;;;2318065;55;21016;-66
2021/03/14 12:39:21;;;;;;;3.80;0.80;;;7.70;69.30;;;;;;2341128;53;20992;-66
2021/03/14 12:41:48;;;;;;;2.97;1.08;;;7.70;69.30;;;;;;2341803;54;21016;-66
2021/03/14 12:44:30;;;;;;;4.07;0.90;;;7.80;69.40;;;;;;2341788;53;20971;-66
2021/03/14 12:46:56;;;;;;;3.08;0.90;;;7.80;69.40;;;;;;2335320;54;20948;-66
2021/03/14 12:49:23;;;;;;;3.03;0.93;;;7.80;69.80;;;;;;2332565;54;20951;-65
2021/03/14 12:51:49;;;;;;;2.33;0.80;;;7.90;70.10;;;;;;2340642;53;21510;-66
2021/03/14 12:54:16;;;;;;;3.30;0.90;;;8.00;70.40;;;;;;2341441;54;21056;-66
2021/03/14 12:56:54;;;;;;;3.20;1.00;;;8.00;70.50;;;;;;2326410;53;20934;-66
2021/03/14 12:59:24;;;;;;;2.55;0.85;;;8.10;70.40;;;;;;2552823;52;22383;-67
2021/03/14 13:01:51;;;;;;;2.37;1.00;;;8.10;70.20;;;;;;2309001;53;21604;-67
2021/03/14 13:04:28;;;;;;;2.83;1.00;;;8.20;70.20;;;;;;2306184;54;21948;-67
2021/03/14 13:06:58;;;;;;;2.97;0.80;;;8.30;70.40;;;;;;2534289;52;21860;-66
2021/03/14 13:09:25;;;;;;;4.25;1.00;;;8.30;70.90;;;;;;2287387;53;20972;-67
2021/03/14 13:11:55;;;;;;;4.10;1.15;;;8.40;71.50;;;;;;2275336;54;22197;-67